Aérodrome :
LOGIN :

S'inscrire | Disclaimer

   EN    FR    IT 

 










Légende :    VFR   VFR Marginal   IFR   IFR Intensif   IFR Très Intensif
Visi : 
Plafond : 
>= 8 km
>= 3000ft
5 à 8 km
1000 à 3000 ft
1500m à 5 km
500 à 1000 ft
800 à 1500m
200 à 500 ft
< 800m
< 200 ft
Symboles :   Orages  Brouillard  Fortes neiges  Fortes précipitations  Vent > 20 kt
SIGMETs :   Divers  Orages  Givrage  Turbulence  Onde Orograph.  Cendres Volcan.






- Altitude de l'aérodrome : 80 ft
- Code IATA : LPL


EGGP - Liverpool John Lennon

DERNIER METAR :
  • 232020Z AUTO 31004KT 6000 RA BKN003/// BKN007/// OVC014/// 15/14 Q1024

METARs EXPIRÉS :
  • 231950Z AUTO 31006KT 290V350 9999 -RA SCT006/// BKN009/// BKN014/// 16/15 Q1024 RERA
  • 231920Z AUTO 30006KT 9999 RA BKN006/// OVC009/// 16/15 Q1024
  • 231850Z AUTO 30005KT 9999 RA SCT006/// BKN010/// OVC024/// 16/15 Q1024
  • 231820Z 31006KT 9000 SCT010 OVC016 16/15 Q1024
  • 231750Z 31005KT 9000 SCT016 OVC020 16/15 Q1024

TAF AMD TAF EGGP
Valide du 23 à 18h jusqu'au 24 à 18h UTC


231839Z 2318/2418 29006KT 9999 SCT015
TEMPO 2318/2412 3000 RADZ BKN008
PROB30
TEMPO 2318/2409 BKN003
ATIS : +44 151 907 2000 (option 5 or ext 5150)
Météo : +44 871 750 5150



MET'MAP, la Météo Aéronautique d'un coup d'oeil ! - Copyright ORBIFLY Décembre 2007 - Disclaimer

ORBIFLY MET'MAP TEAM :

Programmation & Développement : Alexandra Zaïnal
Sur une idée originale de : Baudouin d'Aumeries
Assistance à la programmation : Marc-Olivier Méhu
Soutien technique & logistique : Manuel Goepfert

Contact : metmap@orbifly.com




SOURCES & CREDITS :

   NOAA